Time;durP1;ratioP1;P1;durP2;ratioP2;P2;SDS_P1;SDS_P2;PMS_P1;PMS_P2;Temp;Humidity;BMP_temperature;BMP_pressure;BME280_temperature;BME280_humidity;BME280_pressure;Samples;Min_cycle;Max_cycle;Signal;HPM_P1;HPM_P2
2021/04/26 00:01:46;;;;;;;1.67;1.00;;;5.80;77.90;;;;;;5069668;28;20769;-77
2021/04/26 00:04:12;;;;;;;1.13;1.10;;;5.70;77.80;;;;;;5069807;28;20239;-76
2021/04/26 00:06:38;;;;;;;1.60;1.50;;;5.70;78.00;;;;;;5069981;28;20234;-76
2021/04/26 00:09:05;;;;;;;1.53;1.40;;;5.70;77.10;;;;;;5069673;28;20258;-76
2021/04/26 00:11:32;;;;;;;1.10;1.00;;;5.80;76.70;;;;;;5069155;28;20669;-76
2021/04/26 00:13:58;;;;;;;0.70;0.70;;;5.80;75.50;;;;;;5069586;28;20750;-77
2021/04/26 00:16:24;;;;;;;0.67;0.67;;;5.70;75.30;;;;;;5069160;28;20274;-73
2021/04/26 00:18:51;;;;;;;0.37;0.30;;;5.70;75.00;;;;;;5069418;28;20207;-73
2021/04/26 00:21:18;;;;;;;1.00;0.60;;;5.70;75.00;;;;;;5069511;28;20210;-76
2021/04/26 00:23:44;;;;;;;0.70;0.70;;;5.70;75.30;;;;;;5069516;28;20285;-76
2021/04/26 00:26:11;;;;;;;1.00;0.77;;;5.70;75.50;;;;;;5069322;28;20234;-74
2021/04/26 00:28:38;;;;;;;0.77;0.47;;;5.70;75.40;;;;;;5069310;28;20261;-74
2021/04/26 00:31:04;;;;;;;1.00;0.90;;;5.60;75.80;;;;;;5069146;28;20207;-74
2021/04/26 00:33:31;;;;;;;1.10;0.83;;;5.60;75.80;;;;;;5069113;28;20237;-75
2021/04/26 00:35:57;;;;;;;0.60;0.60;;;5.60;75.50;;;;;;5068728;28;20974;-74
2021/04/26 00:38:23;;;;;;;1.13;0.90;;;5.60;75.40;;;;;;5068620;28;20277;-74
2021/04/26 00:40:50;;;;;;;2.03;0.70;;;5.60;75.70;;;;;;5068750;28;20203;-73
2021/04/26 00:43:16;;;;;;;0.57;0.57;;;5.50;75.60;;;;;;5069017;28;20257;-73
2021/04/26 00:45:43;;;;;;;0.57;0.53;;;5.50;76.00;;;;;;5068666;28;20242;-73
2021/04/26 00:48:09;;;;;;;0.63;0.53;;;5.50;76.00;;;;;;5068591;28;20231;-74
2021/04/26 00:50:36;;;;;;;0.50;0.50;;;5.60;75.70;;;;;;5068890;28;20211;-73
2021/04/26 00:53:04;;;;;;;0.40;0.40;;;5.50;76.00;;;;;;5068670;28;20203;-73
2021/04/26 00:55:34;;;;;;;1.80;0.50;;;5.50;76.30;;;;;;5068743;28;20207;-73
2021/04/26 00:58:01;;;;;;;1.63;0.57;;;5.50;76.50;;;;;;5067619;28;20600;-74
2021/04/26 01:00:28;;;;;;;0.63;0.50;;;5.50;76.00;;;;;;5068699;28;20210;-76
2021/04/26 01:02:56;;;;;;;0.50;0.47;;;5.50;75.60;;;;;;5068539;28;20206;-76
2021/04/26 01:05:24;;;;;;;1.03;0.50;;;5.40;75.90;;;;;;5068727;28;20218;-76
2021/04/26 01:07:51;;;;;;;1.10;0.60;;;5.40;75.70;;;;;;5068584;28;20210;-76
2021/04/26 01:10:20;;;;;;;0.77;0.40;;;5.40;75.80;;;;;;5068679;28;20233;-76
2021/04/26 01:13:28;;;;;;;0.30;0.30;;;5.40;76.00;;;;;;5068800;28;20208;-74
2021/04/26 01:16:04;;;;;;;1.80;0.60;;;5.40;76.40;;;;;;5025051;28;20244;-74
2021/04/26 01:18:38;;;;;;;0.80;0.80;;;5.40;76.90;;;;;;5048349;28;20192;-74
2021/04/26 01:21:51;;;;;;;0.80;0.80;;;5.30;77.50;;;;;;5048342;28;20247;-74
2021/04/26 01:24:55;;;;;;;1.17;0.80;;;5.30;77.90;;;;;;5048186;28;20740;-73
2021/04/26 01:27:32;;;;;;;1.60;0.80;;;5.20;78.00;;;;;;5048100;28;20192;-73
2021/04/26 01:30:07;;;;;;;0.80;0.80;;;5.20;77.70;;;;;;5048029;28;20570;-73
2021/04/26 01:32:40;;;;;;;0.80;0.80;;;5.10;77.60;;;;;;5048341;28;20191;-73
2021/04/26 01:35:08;;;;;;;0.93;0.93;;;5.10;77.60;;;;;;5048034;28;20992;-74
2021/04/26 01:37:36;;;;;;;0.97;0.97;;;5.10;77.50;;;;;;5048215;28;20235;-74
2021/04/26 01:40:06;;;;;;;2.37;1.10;;;5.00;77.70;;;;;;5048027;28;20208;-74
2021/04/26 01:42:33;;;;;;;0.80;0.80;;;5.00;78.00;;;;;;5048152;28;20337;-73
2021/04/26 01:45:01;;;;;;;1.03;1.03;;;4.90;78.40;;;;;;5047722;28;20235;-73
2021/04/26 01:47:27;;;;;;;1.30;1.20;;;4.90;78.70;;;;;;5048295;28;20266;-72
2021/04/26 01:49:55;;;;;;;1.40;1.30;;;4.80;78.60;;;;;;5047816;28;20231;-73
2021/04/26 01:52:21;;;;;;;0.80;0.80;;;4.80;78.80;;;;;;5048283;28;20228;-73
2021/04/26 01:54:48;;;;;;;1.30;1.00;;;4.80;79.20;;;;;;5048123;28;20236;-73
2021/04/26 01:57:14;;;;;;;0.90;0.63;;;4.80;79.80;;;;;;5048109;28;20208;-72
2021/04/26 01:59:40;;;;;;;4.20;0.90;;;4.80;80.20;;;;;;5047916;28;20231;-73
2021/04/26 02:02:07;;;;;;;2.03;0.90;;;4.70;80.50;;;;;;5047809;28;20204;-73
2021/04/26 02:04:36;;;;;;;2.13;0.93;;;4.70;80.90;;;;;;5047984;28;20208;-75
2021/04/26 02:07:03;;;;;;;0.87;0.87;;;4.70;81.80;;;;;;5048013;28;20254;-75
2021/04/26 02:09:31;;;;;;;2.73;1.00;;;4.70;81.20;;;;;;5050220;28;20228;-75
2021/04/26 02:11:58;;;;;;;0.93;0.93;;;4.70;81.50;;;;;;5051811;28;20215;-75
2021/04/26 02:14:26;;;;;;;0.93;0.80;;;4.70;81.30;;;;;;5051637;28;20208;-74
2021/04/26 02:16:53;;;;;;;0.80;0.80;;;4.60;81.40;;;;;;5051551;28;20277;-74
2021/04/26 02:19:20;;;;;;;0.70;0.70;;;4.60;81.60;;;;;;5051594;28;20749;-74
2021/04/26 02:21:46;;;;;;;1.20;0.90;;;4.60;81.80;;;;;;5051462;28;20207;-74
2021/04/26 02:24:14;;;;;;;1.13;1.03;;;4.50;82.30;;;;;;5051543;28;20254;-74
2021/04/26 02:26:40;;;;;;;1.20;1.10;;;4.50;82.40;;;;;;5051613;28;20207;-74
2021/04/26 02:29:06;;;;;;;1.60;1.20;;;4.50;82.60;;;;;;5051154;28;20283;-74
2021/04/26 02:31:35;;;;;;;1.33;1.07;;;4.50;82.90;;;;;;5051467;28;20216;-73
2021/04/26 02:34:09;;;;;;;1.33;0.80;;;4.50;83.20;;;;;;5051159;28;20204;-73
2021/04/26 02:36:38;;;;;;;2.20;0.90;;;4.40;83.40;;;;;;5051611;28;20270;-73
2021/04/26 02:39:07;;;;;;;0.80;0.80;;;4.40;83.30;;;;;;5050911;28;20690;-73
2021/04/26 02:41:39;;;;;;;1.17;0.70;;;4.50;83.50;;;;;;5051357;28;20216;-73
2021/04/26 02:44:11;;;;;;;0.77;0.77;;;4.50;84.30;;;;;;5051201;28;20192;-74
2021/04/26 02:46:38;;;;;;;0.57;0.57;;;4.40;83.60;;;;;;5051253;28;20207;-73
2021/04/26 02:49:06;;;;;;;1.87;0.90;;;4.40;83.30;;;;;;5050954;28;20239;-73
2021/04/26 02:51:34;;;;;;;1.63;1.10;;;4.40;83.40;;;;;;5050760;28;20318;-74
2021/04/26 02:54:02;;;;;;;1.30;0.63;;;4.30;83.60;;;;;;5050734;28;20262;-73
2021/04/26 02:56:30;;;;;;;0.87;0.70;;;4.20;84.20;;;;;;5050989;28;20646;-73
2021/04/26 02:58:57;;;;;;;1.53;0.90;;;4.20;84.20;;;;;;5050951;28;20215;-74
2021/04/26 03:01:25;;;;;;;1.80;0.97;;;4.20;84.20;;;;;;5050842;28;20208;-74
2021/04/26 03:03:52;;;;;;;0.83;0.83;;;4.10;84.20;;;;;;5051049;28;20204;-75
2021/04/26 03:06:18;;;;;;;0.87;0.70;;;4.10;84.10;;;;;;5049883;28;20211;-73
2021/04/26 03:08:46;;;;;;;1.00;0.90;;;4.00;84.30;;;;;;5049687;28;20239;-74
2021/04/26 03:11:14;;;;;;;1.23;0.90;;;4.00;84.50;;;;;;5048126;28;20270;-74
2021/04/26 03:13:41;;;;;;;1.20;0.93;;;4.00;84.40;;;;;;5048982;28;20215;-74
2021/04/26 03:16:08;;;;;;;0.63;0.63;;;4.10;84.40;;;;;;5048001;28;20247;-74
2021/04/26 03:18:35;;;;;;;1.83;1.07;;;4.00;84.50;;;;;;5048783;28;20211;-74
2021/04/26 03:21:06;;;;;;;2.83;0.90;;;4.00;84.40;;;;;;5047985;28;20208;-74
2021/04/26 03:23:32;;;;;;;1.40;0.93;;;4.00;84.00;;;;;;5048493;28;20708;-74
2021/04/26 03:26:00;;;;;;;0.93;0.90;;;3.90;84.00;;;;;;5048191;28;20573;-69
2021/04/26 03:28:28;;;;;;;1.40;1.27;;;3.90;84.70;;;;;;5047670;28;20580;-70
2021/04/26 03:30:57;;;;;;;2.20;1.10;;;3.90;86.00;;;;;;5048057;28;20285;-74
2021/04/26 03:33:24;;;;;;;1.77;0.83;;;3.80;85.70;;;;;;5048396;28;20254;-74
2021/04/26 03:35:54;;;;;;;3.37;0.90;;;3.80;85.20;;;;;;5048141;28;20211;-74
2021/04/26 03:38:20;;;;;;;2.43;0.80;;;3.80;85.20;;;;;;5053038;28;20223;-74
2021/04/26 03:40:46;;;;;;;1.07;0.90;;;3.80;85.50;;;;;;5056513;28;20203;-74
2021/04/26 03:43:17;;;;;;;3.93;0.93;;;3.80;85.40;;;;;;5048588;28;20211;-74
2021/04/26 03:45:43;;;;;;;1.63;1.30;;;3.80;85.50;;;;;;5047589;28;20765;-74
2021/04/26 03:48:10;;;;;;;1.57;1.20;;;3.70;85.80;;;;;;5047631;28;20208;-74
2021/04/26 03:50:37;;;;;;;0.90;0.90;;;3.70;85.90;;;;;;5047706;28;20224;-75
2021/04/26 03:53:03;;;;;;;3.43;1.10;;;3.70;85.90;;;;;;5047763;28;20215;-75
2021/04/26 03:55:29;;;;;;;0.90;0.90;;;3.70;86.00;;;;;;5048177;28;20212;-75
2021/04/26 03:57:55;;;;;;;1.00;0.90;;;3.80;86.00;;;;;;5049745;28;20614;-75
2021/04/26 04:00:23;;;;;;;1.40;1.03;;;3.70;86.00;;;;;;5049331;28;20238;-75
2021/04/26 04:02:50;;;;;;;1.27;1.07;;;3.70;86.00;;;;;;5071052;28;20199;-74
2021/04/26 04:05:17;;;;;;;1.00;0.90;;;3.70;86.30;;;;;;5078409;28;20199;-74
2021/04/26 04:07:44;;;;;;;1.50;1.00;;;3.70;86.50;;;;;;5078610;28;20200;-75
2021/04/26 04:10:13;;;;;;;1.07;1.03;;;3.70;86.40;;;;;;5070462;28;20231;-74
2021/04/26 04:12:39;;;;;;;1.00;1.00;;;3.70;86.60;;;;;;5071428;28;20677;-74
2021/04/26 04:15:10;;;;;;;2.40;1.10;;;3.70;86.60;;;;;;5069031;28;20206;-74
2021/04/26 04:17:38;;;;;;;1.27;1.10;;;3.70;86.70;;;;;;5074957;28;20766;-74
2021/04/26 04:20:06;;;;;;;1.27;0.80;;;3.60;87.10;;;;;;5063945;28;20223;-74
2021/04/26 04:22:32;;;;;;;1.10;1.00;;;3.60;87.60;;;;;;5079054;28;21020;-75
2021/04/26 04:24:59;;;;;;;1.27;1.00;;;3.60;88.60;;;;;;5077666;28;20202;-74
2021/04/26 04:27:25;;;;;;;0.70;0.70;;;3.70;87.90;;;;;;5077578;28;20200;-75
2021/04/26 04:29:51;;;;;;;3.23;1.30;;;3.70;88.20;;;;;;5083528;28;20270;-75
2021/04/26 04:32:18;;;;;;;2.77;1.10;;;3.70;88.30;;;;;;5080283;28;20199;-75
2021/04/26 04:34:44;;;;;;;1.30;1.00;;;3.70;88.60;;;;;;5079620;28;20738;-75
2021/04/26 04:37:10;;;;;;;1.87;1.37;;;3.70;88.60;;;;;;5078097;28;20199;-74
2021/04/26 04:39:36;;;;;;;2.20;1.47;;;3.70;88.90;;;;;;5075577;28;20592;-74
2021/04/26 04:42:03;;;;;;;7.40;2.47;;;3.70;88.80;;;;;;5076906;28;20206;-75
2021/04/26 04:44:30;;;;;;;3.67;2.33;;;3.70;88.90;;;;;;5080272;28;20199;-75
2021/04/26 04:46:56;;;;;;;2.90;1.33;;;3.70;88.90;;;;;;5080297;28;20568;-74
2021/04/26 04:49:22;;;;;;;3.17;1.20;;;3.70;88.90;;;;;;5080136;28;20218;-75
2021/04/26 04:51:48;;;;;;;1.90;1.13;;;3.80;88.80;;;;;;5079345;28;20353;-75
2021/04/26 04:54:14;;;;;;;1.57;1.47;;;3.80;89.00;;;;;;5079109;28;20195;-75
2021/04/26 04:56:41;;;;;;;2.47;1.37;;;3.80;89.20;;;;;;5079216;28;20196;-75
2021/04/26 04:59:08;;;;;;;1.10;1.00;;;3.80;89.30;;;;;;5073656;28;20264;-74
2021/04/26 05:01:34;;;;;;;1.87;1.10;;;3.90;89.20;;;;;;5076292;28;20195;-74
2021/04/26 05:04:01;;;;;;;0.90;0.90;;;3.90;89.30;;;;;;5078867;28;20203;-74
2021/04/26 05:06:27;;;;;;;1.37;1.27;;;3.90;89.00;;;;;;5076344;28;20211;-74
2021/04/26 05:08:53;;;;;;;1.37;1.30;;;3.90;89.10;;;;;;5064468;28;20216;-74
2021/04/26 05:11:20;;;;;;;1.87;1.20;;;3.90;89.20;;;;;;5071667;28;20214;-74
2021/04/26 05:13:46;;;;;;;3.53;0.93;;;3.80;90.00;;;;;;5074366;28;20203;-74
2021/04/26 05:16:13;;;;;;;0.83;0.80;;;3.80;90.00;;;;;;5079029;28;20697;-74
2021/04/26 05:18:40;;;;;;;2.00;1.10;;;3.80;90.10;;;;;;5079824;28;20196;-74
2021/04/26 05:21:06;;;;;;;2.60;1.10;;;3.90;90.20;;;;;;5076295;28;20199;-75
2021/04/26 05:23:32;;;;;;;1.03;0.90;;;3.90;90.10;;;;;;5076219;28;20198;-75
2021/04/26 05:25:58;;;;;;;3.50;1.07;;;4.00;90.20;;;;;;5073832;28;20208;-75
2021/04/26 05:28:24;;;;;;;3.57;1.03;;;4.00;90.10;;;;;;5071285;28;20210;-74
2021/04/26 05:30:50;;;;;;;3.80;1.30;;;4.00;90.20;;;;;;5070668;28;20670;-75
2021/04/26 05:33:17;;;;;;;3.03;1.20;;;4.10;90.30;;;;;;5069902;28;20235;-75
2021/04/26 05:35:44;;;;;;;1.17;1.07;;;4.10;90.30;;;;;;5059376;28;20204;-75
2021/04/26 05:38:11;;;;;;;1.47;1.17;;;4.10;90.30;;;;;;5065508;28;20199;-75
2021/04/26 05:40:37;;;;;;;1.83;1.50;;;4.10;90.60;;;;;;5075167;28;20204;-76
2021/04/26 05:43:04;;;;;;;3.40;1.20;;;4.10;90.60;;;;;;5072566;28;20207;-76
2021/04/26 05:45:30;;;;;;;4.13;1.10;;;4.10;90.90;;;;;;5071284;28;20202;-76
2021/04/26 05:47:56;;;;;;;1.60;1.10;;;4.20;90.70;;;;;;5078720;28;20210;-76
2021/04/26 05:50:23;;;;;;;2.40;1.00;;;4.20;90.80;;;;;;5084108;28;20258;-75
2021/04/26 05:52:49;;;;;;;2.50;1.20;;;4.20;90.90;;;;;;5058842;28;20222;-75
2021/04/26 05:55:16;;;;;;;1.67;1.07;;;4.30;91.10;;;;;;5051365;28;20211;-76
2021/04/26 05:57:42;;;;;;;23.93;2.60;;;4.30;91.20;;;;;;5047641;28;20208;-74
2021/04/26 06:00:09;;;;;;;2.73;1.60;;;4.40;91.60;;;;;;5047201;28;20667;-76
2021/04/26 06:02:35;;;;;;;0.97;0.97;;;4.60;92.20;;;;;;5047902;28;20239;-76
2021/04/26 06:05:01;;;;;;;5.27;1.37;;;4.60;91.60;;;;;;5047662;28;20257;-76
2021/04/26 06:07:28;;;;;;;2.83;1.20;;;4.70;91.60;;;;;;5074111;28;20265;-75
2021/04/26 06:09:54;;;;;;;1.57;1.20;;;4.70;91.50;;;;;;5076185;28;20250;-75
2021/04/26 06:12:20;;;;;;;1.93;1.10;;;4.90;91.40;;;;;;5073372;28;20211;-75
2021/04/26 06:14:47;;;;;;;2.83;1.33;;;4.90;91.30;;;;;;5079996;28;20198;-75
2021/04/26 06:17:13;;;;;;;1.20;1.00;;;5.00;91.50;;;;;;5077768;28;20252;-75
2021/04/26 06:19:39;;;;;;;3.80;1.40;;;5.00;91.30;;;;;;5076707;28;20192;-75
2021/04/26 06:22:05;;;;;;;0.87;0.70;;;5.10;91.10;;;;;;5081618;28;20245;-75
2021/04/26 06:24:33;;;;;;;2.00;1.17;;;5.20;91.20;;;;;;5087758;28;20202;-76
2021/04/26 06:27:00;;;;;;;4.27;1.10;;;5.20;91.00;;;;;;5087824;28;20206;-75
2021/04/26 06:29:26;;;;;;;3.90;1.07;;;5.30;90.90;;;;;;5085843;28;20227;-76
2021/04/26 06:31:52;;;;;;;2.93;0.70;;;5.30;90.80;;;;;;5076244;28;20200;-76
2021/04/26 06:34:18;;;;;;;1.70;1.00;;;5.30;91.30;;;;;;5079082;28;20191;-76
2021/04/26 06:36:44;;;;;;;1.60;1.00;;;5.30;91.60;;;;;;5076519;28;20293;-76
2021/04/26 06:39:10;;;;;;;1.43;1.00;;;5.40;91.50;;;;;;5076457;28;20203;-74
2021/04/26 06:41:40;;;;;;;3.50;0.80;;;5.50;91.20;;;;;;5077480;28;20252;-74
2021/04/26 06:44:06;;;;;;;2.00;0.80;;;5.60;91.50;;;;;;5077813;28;20191;-74
2021/04/26 06:46:33;;;;;;;2.30;0.80;;;5.60;92.00;;;;;;5078400;28;20212;-75
2021/04/26 06:48:59;;;;;;;15.23;1.63;;;5.70;91.70;;;;;;5077525;28;20598;-74
2021/04/26 06:51:25;;;;;;;1.50;1.10;;;5.80;91.70;;;;;;5075965;28;20245;-74
2021/04/26 06:53:51;;;;;;;0.60;0.60;;;5.80;91.70;;;;;;5076582;28;20195;-74
2021/04/26 06:56:17;;;;;;;1.33;0.90;;;5.80;91.70;;;;;;5080594;28;20269;-75
2021/04/26 06:58:45;;;;;;;1.07;0.67;;;5.90;91.90;;;;;;5079667;28;20199;-74
2021/04/26 07:01:11;;;;;;;0.57;0.57;;;5.90;91.50;;;;;;5077236;28;20196;-74
2021/04/26 07:03:37;;;;;;;0.93;0.53;;;6.00;91.30;;;;;;5080326;28;20199;-74
2021/04/26 07:06:04;;;;;;;1.47;0.60;;;6.00;91.00;;;;;;5081159;28;20685;-74
2021/04/26 07:08:30;;;;;;;2.10;0.80;;;6.10;90.50;;;;;;5070072;28;20269;-74
2021/04/26 07:10:56;;;;;;;3.00;0.90;;;6.20;90.80;;;;;;5070576;28;20207;-75
2021/04/26 07:13:23;;;;;;;1.30;1.20;;;6.30;91.00;;;;;;5070664;28;20199;-75
2021/04/26 07:15:50;;;;;;;0.70;0.70;;;6.30;91.00;;;;;;5070773;28;20261;-75
2021/04/26 07:18:16;;;;;;;6.27;1.17;;;6.50;90.50;;;;;;5070551;28;20210;-75
2021/04/26 07:20:42;;;;;;;5.40;0.87;;;6.50;90.00;;;;;;5070446;28;20692;-76
2021/04/26 07:23:08;;;;;;;1.93;0.70;;;6.60;90.10;;;;;;5070670;28;20207;-75
2021/04/26 07:25:34;;;;;;;0.70;0.43;;;6.60;90.00;;;;;;5069927;28;20262;-76
2021/04/26 07:28:00;;;;;;;1.77;0.50;;;6.70;89.30;;;;;;5066869;28;20199;-76
2021/04/26 07:30:27;;;;;;;0.80;0.80;;;6.70;88.80;;;;;;5054869;28;20227;-73
2021/04/26 07:32:54;;;;;;;1.17;0.40;;;6.80;89.70;;;;;;5056301;28;20207;-74
2021/04/26 07:35:20;;;;;;;0.97;0.50;;;6.80;89.00;;;;;;5072778;28;20196;-76
2021/04/26 07:37:46;;;;;;;0.73;0.70;;;6.90;88.50;;;;;;5077908;28;20199;-76
2021/04/26 07:40:15;;;;;;;1.47;0.90;;;7.00;88.00;;;;;;5079612;28;20203;-76
2021/04/26 07:42:41;;;;;;;1.13;0.60;;;7.00;86.50;;;;;;5080484;28;20204;-75
2021/04/26 07:45:09;;;;;;;1.13;0.70;;;7.10;86.60;;;;;;5078614;28;20241;-76
2021/04/26 07:47:35;;;;;;;2.63;0.70;;;7.20;86.60;;;;;;5080825;28;20211;-76
2021/04/26 07:50:05;;;;;;;2.97;0.90;;;7.20;86.50;;;;;;5078061;28;20231;-76
2021/04/26 07:52:31;;;;;;;1.00;0.70;;;7.30;88.00;;;;;;5082610;28;20203;-76
2021/04/26 07:54:58;;;;;;;0.90;0.70;;;7.30;86.60;;;;;;5078293;28;20836;-76
2021/04/26 07:57:25;;;;;;;1.17;0.80;;;7.40;85.00;;;;;;5075178;28;20203;-76
2021/04/26 07:59:51;;;;;;;1.23;0.80;;;7.40;85.50;;;;;;5077970;28;20200;-76
2021/04/26 08:02:17;;;;;;;1.33;0.93;;;7.50;85.70;;;;;;5078052;28;20206;-76
2021/04/26 08:04:43;;;;;;;1.17;0.80;;;7.50;85.10;;;;;;5080498;28;20252;-76
2021/04/26 08:07:10;;;;;;;3.07;0.70;;;7.50;83.70;;;;;;5078081;28;20203;-76
2021/04/26 08:09:36;;;;;;;4.10;0.80;;;7.50;83.90;;;;;;5075419;28;20305;-76
2021/04/26 08:12:03;;;;;;;0.60;0.47;;;7.60;82.90;;;;;;5076851;28;20199;-76
2021/04/26 08:14:29;;;;;;;2.73;0.70;;;7.60;82.50;;;;;;5078582;28;20206;-76
2021/04/26 08:16:56;;;;;;;0.57;0.57;;;7.70;82.30;;;;;;5077331;28;20227;-76
2021/04/26 08:19:22;;;;;;;1.17;0.37;;;7.80;79.60;;;;;;5079691;28;20215;-76
2021/04/26 08:21:49;;;;;;;0.60;0.53;;;7.80;79.10;;;;;;5077539;28;20206;-75
2021/04/26 08:24:16;;;;;;;4.10;0.70;;;7.90;80.30;;;;;;5069182;28;20559;-76
2021/04/26 08:26:42;;;;;;;9.60;1.40;;;8.00;81.60;;;;;;5073919;28;20199;-75
2021/04/26 08:29:09;;;;;;;1.43;0.83;;;8.00;81.40;;;;;;5076446;28;20259;-75
2021/04/26 08:31:36;;;;;;;1.03;0.53;;;8.20;80.60;;;;;;5075616;28;20200;-76
2021/04/26 08:34:02;;;;;;;3.47;0.70;;;8.10;79.00;;;;;;5077222;28;20322;-76
2021/04/26 08:36:28;;;;;;;1.73;1.20;;;8.20;79.00;;;;;;5078026;28;20214;-76
2021/04/26 08:38:54;;;;;;;2.67;0.70;;;8.30;78.60;;;;;;5077454;28;20240;-76
2021/04/26 08:41:21;;;;;;;1.77;0.63;;;8.30;78.10;;;;;;5076588;28;20191;-76
2021/04/26 08:43:47;;;;;;;1.20;0.63;;;8.50;77.60;;;;;;5076284;28;20248;-76
2021/04/26 08:46:14;;;;;;;0.57;0.57;;;8.60;78.00;;;;;;5074449;28;20240;-76
2021/04/26 08:48:41;;;;;;;2.67;0.63;;;8.80;78.20;;;;;;5079823;28;20253;-76
2021/04/26 08:51:07;;;;;;;1.47;0.70;;;8.90;77.70;;;;;;5080279;28;20219;-76
2021/04/26 08:53:33;;;;;;;1.53;0.73;;;9.00;77.10;;;;;;5078188;28;20203;-76
2021/04/26 08:56:00;;;;;;;0.97;0.60;;;9.00;76.40;;;;;;5079709;28;20242;-76
2021/04/26 08:58:29;;;;;;;0.70;0.70;;;9.10;76.30;;;;;;5077590;28;20561;-77
2021/04/26 09:00:55;;;;;;;1.37;0.60;;;9.10;74.40;;;;;;5080440;28;20256;-76
2021/04/26 09:03:30;;;;;;;2.60;0.47;;;9.10;76.20;;;;;;5077277;28;20199;-76
2021/04/26 09:05:56;;;;;;;2.83;1.00;;;9.30;77.00;;;;;;5077812;28;20258;-76
2021/04/26 09:08:23;;;;;;;0.67;0.47;;;9.40;77.00;;;;;;5076188;28;20203;-76
2021/04/26 09:10:51;;;;;;;1.33;0.77;;;9.50;75.90;;;;;;5077457;28;20223;-76
2021/04/26 09:13:32;;;;;;;1.67;0.77;;;9.50;76.00;;;;;;5077363;28;20202;-76
2021/04/26 09:16:02;;;;;;;1.33;0.70;;;9.60;73.30;;;;;;5075413;28;20274;-76
2021/04/26 09:18:49;;;;;;;1.43;0.60;;;9.50;73.00;;;;;;5080751;28;20237;-76
2021/04/26 09:21:18;;;;;;;0.67;0.67;;;9.50;73.70;;;;;;5076875;28;20206;-75
2021/04/26 09:23:45;;;;;;;1.70;0.63;;;9.40;76.30;;;;;;5063003;28;20207;-75
2021/04/26 09:26:25;;;;;;;4.10;1.00;;;9.40;76.70;;;;;;5081787;28;20207;-76
2021/04/26 09:29:14;;;;;;;1.07;0.63;;;9.30;74.40;;;;;;5078617;28;20191;-75
2021/04/26 09:31:41;;;;;;;2.83;0.80;;;9.40;72.50;;;;;;5078416;28;20198;-76
2021/04/26 09:34:28;;;;;;;1.90;0.80;;;9.60;72.50;;;;;;5077091;28;20260;-76
2021/04/26 09:37:04;;;;;;;1.50;0.70;;;9.60;71.20;;;;;;5072407;28;20236;-76
2021/04/26 09:39:31;;;;;;;3.83;0.67;;;9.50;70.50;;;;;;5076343;28;20198;-76
2021/04/26 09:41:57;;;;;;;0.60;0.60;;;9.40;71.40;;;;;;5071449;28;20661;-76
2021/04/26 09:44:24;;;;;;;0.77;0.60;;;9.20;69.80;;;;;;5079593;28;20638;-76
2021/04/26 09:46:52;;;;;;;0.80;0.70;;;9.30;71.30;;;;;;5079783;28;20199;-75
2021/04/26 09:49:20;;;;;;;0.60;0.60;;;9.30;70.50;;;;;;5079561;28;20223;-76
2021/04/26 09:51:48;;;;;;;5.70;0.80;;;9.30;70.50;;;;;;5074961;28;20230;-76
2021/04/26 09:54:15;;;;;;;1.70;0.80;;;9.20;71.00;;;;;;5077301;28;20557;-76
2021/04/26 09:56:43;;;;;;;2.20;0.63;;;9.30;71.90;;;;;;5079327;28;20203;-76
2021/04/26 09:59:11;;;;;;;1.77;0.70;;;9.40;71.30;;;;;;5070358;28;20681;-77
2021/04/26 10:01:38;;;;;;;0.63;0.63;;;9.40;71.00;;;;;;5075063;28;20209;-76
2021/04/26 10:04:06;;;;;;;1.27;0.70;;;9.60;72.30;;;;;;5073701;28;20662;-76
2021/04/26 10:06:33;;;;;;;3.93;0.67;;;9.70;71.00;;;;;;5078967;28;20215;-76
2021/04/26 10:09:01;;;;;;;6.37;1.37;;;9.80;71.80;;;;;;5075109;28;20203;-75
2021/04/26 10:11:29;;;;;;;2.73;0.80;;;9.90;71.70;;;;;;5079150;28;20203;-76
2021/04/26 10:14:01;;;;;;;7.03;0.93;;;9.90;70.60;;;;;;5078068;28;20204;-76
2021/04/26 10:16:37;;;;;;;1.03;0.70;;;10.10;71.30;;;;;;5073279;28;20239;-76
2021/04/26 10:19:06;;;;;;;1.80;1.00;;;10.10;72.70;;;;;;5067721;28;20207;-75
2021/04/26 10:21:34;;;;;;;6.17;1.00;;;10.30;72.10;;;;;;5067931;28;20659;-76
2021/04/26 10:24:18;;;;;;;16.27;2.00;;;10.20;69.90;;;;;;5067944;28;20426;-75
2021/04/26 10:26:48;;;;;;;5.13;2.20;;;10.30;70.70;;;;;;5067647;28;20650;-76
2021/04/26 10:29:17;;;;;;;1.57;0.90;;;10.40;71.10;;;;;;5067797;28;20237;-76
2021/04/26 10:32:04;;;;;;;1.70;0.90;;;10.40;71.30;;;;;;5070975;28;20210;-76
2021/04/26 10:34:33;;;;;;;2.60;0.90;;;10.40;70.90;;;;;;5070978;28;20681;-75
2021/04/26 10:37:01;;;;;;;2.37;0.80;;;10.40;72.70;;;;;;5071489;28;20298;-76
2021/04/26 10:39:29;;;;;;;3.77;1.03;;;10.40;73.80;;;;;;5071201;28;20748;-75
2021/04/26 10:42:09;;;;;;;44.23;3.80;;;10.40;73.40;;;;;;5070952;28;20222;-76
2021/04/26 10:44:50;;;;;;;21.00;2.53;;;10.40;73.90;;;;;;5071048;28;20192;-76
2021/04/26 10:47:20;;;;;;;5.00;0.90;;;10.40;73.20;;;;;;5071578;28;20200;-76
2021/04/26 10:49:49;;;;;;;5.13;0.87;;;10.50;73.20;;;;;;5071363;28;20238;-76
2021/04/26 10:52:36;;;;;;;2.00;0.93;;;10.50;73.50;;;;;;5071295;28;20203;-75
2021/04/26 10:55:06;;;;;;;0.83;0.70;;;10.40;71.20;;;;;;5071123;28;20203;-76
2021/04/26 10:57:34;;;;;;;6.10;1.07;;;10.40;71.60;;;;;;5071179;28;20249;-76
2021/04/26 11:00:39;;;;;;;0.80;0.60;;;10.40;72.50;;;;;;5071093;28;20254;-76
2021/04/26 11:03:39;;;;;;;3.53;0.90;;;10.60;72.60;;;;;;5058767;28;20215;-76
2021/04/26 11:06:28;;;;;;;0.70;0.70;;;10.70;72.40;;;;;;5070934;28;20196;-76
2021/04/26 11:11:47;;;;;;;1.13;0.70;;;10.50;69.30;;;;;;5049628;28;20211;-76
2021/04/26 11:14:22;;;;;;;1.07;0.70;;;10.60;70.00;;;;;;5049525;28;20196;-76
2021/04/26 11:17:05;;;;;;;1.13;0.77;;;10.40;69.10;;;;;;5050665;28;20269;-75
2021/04/26 11:19:32;;;;;;;2.20;0.70;;;10.50;69.50;;;;;;5049332;28;20207;-75
2021/04/26 11:22:04;;;;;;;1.80;0.73;;;10.30;67.80;;;;;;5050907;28;20212;-75
2021/04/26 11:25:02;;;;;;;0.57;0.47;;;10.20;69.50;;;;;;5055422;28;20658;-75
2021/04/26 11:27:28;;;;;;;0.80;0.73;;;10.00;69.10;;;;;;5056854;28;20204;-75
2021/04/26 11:30:14;;;;;;;1.30;0.97;;;10.00;68.60;;;;;;5050287;28;20301;-75
2021/04/26 11:33:11;;;;;;;0.60;0.60;;;10.10;68.60;;;;;;5050263;28;20292;-75
2021/04/26 11:36:22;;;;;;;0.73;0.60;;;10.10;68.90;;;;;;5050619;28;20258;-75
2021/04/26 11:38:49;;;;;;;1.97;1.10;;;10.30;70.90;;;;;;5050432;28;20218;-75
2021/04/26 11:41:16;;;;;;;2.17;0.97;;;10.30;71.40;;;;;;5049251;28;20274;-75
2021/04/26 11:43:50;;;;;;;0.53;0.33;;;10.50;71.50;;;;;;5050317;28;20203;-75
2021/04/26 11:46:27;;;;;;;2.30;0.90;;;10.70;70.40;;;;;;5050323;28;20196;-76
2021/04/26 11:49:15;;;;;;;1.47;0.80;;;10.70;70.00;;;;;;5050432;28;20191;-75
2021/04/26 11:51:41;;;;;;;1.63;0.80;;;10.70;70.00;;;;;;5051766;28;20215;-76
2021/04/26 11:54:13;;;;;;;0.60;0.60;;;11.00;71.50;;;;;;5056593;28;20214;-75
2021/04/26 11:56:39;;;;;;;0.73;0.63;;;11.40;71.00;;;;;;5067271;28;20232;-73
2021/04/26 11:59:07;;;;;;;3.43;0.73;;;11.60;69.20;;;;;;5058575;28;20214;-73
2021/04/26 12:01:33;;;;;;;2.10;0.70;;;11.80;69.20;;;;;;5058790;28;20234;-76
2021/04/26 12:04:00;;;;;;;1.83;0.93;;;11.90;68.00;;;;;;5052640;28;20227;-76
2021/04/26 12:06:26;;;;;;;4.83;1.17;;;12.20;66.50;;;;;;5078564;28;20219;-76
2021/04/26 12:08:54;;;;;;;1.87;0.93;;;12.50;66.30;;;;;;5078028;28;20623;-77
2021/04/26 12:11:22;;;;;;;2.20;1.00;;;12.80;65.70;;;;;;5074268;28;20223;-76
2021/04/26 12:14:08;;;;;;;3.37;2.93;;;12.80;64.70;;;;;;5079243;28;20196;-77
2021/04/26 12:16:34;;;;;;;1.73;0.90;;;12.50;65.50;;;;;;5078945;28;20724;-77
2021/04/26 12:19:02;;;;;;;1.00;0.80;;;12.50;65.20;;;;;;5079656;28;20240;-76
2021/04/26 12:21:29;;;;;;;0.77;0.70;;;11.80;63.60;;;;;;5079111;28;20614;-76
2021/04/26 12:23:55;;;;;;;1.77;0.83;;;11.60;65.90;;;;;;5078310;28;20199;-76
2021/04/26 12:26:22;;;;;;;1.83;0.90;;;11.50;65.40;;;;;;5079787;28;20238;-76
2021/04/26 12:28:49;;;;;;;2.60;0.80;;;11.40;66.60;;;;;;5074169;28;20222;-76
2021/04/26 12:31:20;;;;;;;0.80;0.73;;;11.40;68.70;;;;;;5073110;28;20223;-76
2021/04/26 12:33:46;;;;;;;0.73;0.67;;;11.20;68.00;;;;;;5080911;28;20271;-76
2021/04/26 12:36:13;;;;;;;1.17;1.03;;;11.20;67.40;;;;;;5078022;28;20203;-76
2021/04/26 12:38:39;;;;;;;1.33;0.40;;;11.10;68.10;;;;;;5077860;28;20978;-76
2021/04/26 12:41:12;;;;;;;1.73;0.90;;;11.10;68.90;;;;;;5082140;28;20202;-76
2021/04/26 12:43:40;;;;;;;1.80;0.90;;;11.10;69.10;;;;;;5077879;28;20194;-76
2021/04/26 12:46:07;;;;;;;3.27;1.17;;;11.10;69.70;;;;;;5080630;28;20196;-77
2021/04/26 12:48:34;;;;;;;2.27;0.70;;;11.10;69.60;;;;;;5078090;28;20233;-76
2021/04/26 12:51:03;;;;;;;3.47;1.20;;;11.20;69.30;;;;;;5075045;28;20693;-76
2021/04/26 12:53:32;;;;;;;1.67;0.50;;;11.20;68.00;;;;;;5077701;28;20203;-76
2021/04/26 12:56:11;;;;;;;0.97;0.80;;;11.50;68.70;;;;;;5077098;28;20206;-77
2021/04/26 12:58:39;;;;;;;1.40;0.87;;;11.80;68.40;;;;;;5077199;28;20203;-76
2021/04/26 13:01:21;;;;;;;3.10;1.10;;;11.90;68.00;;;;;;5078597;28;20199;-77
2021/04/26 13:03:56;;;;;;;2.03;0.83;;;11.90;68.40;;;;;;5076808;28;20196;-76
2021/04/26 13:06:24;;;;;;;0.80;0.80;;;11.90;66.10;;;;;;5075492;28;20294;-76
2021/04/26 13:08:54;;;;;;;0.80;0.80;;;11.90;66.00;;;;;;5078177;28;20206;-76